Time;durP1;ratioP1;P1;durP2;ratioP2;P2;SDS_P1;SDS_P2;PMS_P1;PMS_P2;Temp;Humidity;BMP_temperature;BMP_pressure;BME280_temperature;BME280_humidity;BME280_pressure;Samples;Min_cycle;Max_cycle;Signal;HPM_P1;HPM_P2
2021/10/08 00:01:48;;;;;;;110.47;34.00;;;;;;;11.36;100.00;102998.41;5126578;27;20096;-60
2021/10/08 00:04:14;;;;;;;98.70;34.27;;;;;;;11.41;100.00;103000.66;5134085;27;20459;-57
2021/10/08 00:06:40;;;;;;;123.85;31.63;;;;;;;11.38;100.00;102995.59;5112016;27;20748;-59
2021/10/08 00:09:05;;;;;;;94.35;35.40;;;;;;;11.36;100.00;102994.91;5102166;28;20067;-59
2021/10/08 00:11:31;;;;;;;100.40;34.47;;;;;;;11.36;100.00;102990.38;5098337;28;20115;-59
2021/10/08 00:13:57;;;;;;;91.05;36.88;;;;;;;11.36;100.00;102992.22;5100955;28;20384;-59
2021/10/08 00:16:22;;;;;;;107.07;34.20;;;;;;;11.33;100.00;102996.03;5102302;28;20063;-58
2021/10/08 00:18:49;;;;;;;81.65;30.05;;;;;;;11.31;100.00;103001.53;5101819;28;20309;-59
2021/10/08 00:21:15;;;;;;;61.57;29.70;;;;;;;11.34;100.00;103000.38;5100017;28;20036;-53
2021/10/08 00:23:41;;;;;;;92.13;30.92;;;;;;;11.31;100.00;102998.88;5103006;28;20294;-58
2021/10/08 00:26:06;;;;;;;107.63;32.63;;;;;;;11.22;100.00;102997.06;5102638;28;20468;-59
2021/10/08 00:28:32;;;;;;;93.57;32.00;;;;;;;11.16;100.00;103000.31;5101269;28;20035;-61
2021/10/08 00:30:58;;;;;;;78.47;32.97;;;;;;;11.17;100.00;103000.16;5101150;28;20036;-59
2021/10/08 00:33:23;;;;;;;97.78;30.67;;;;;;;11.15;100.00;102996.78;5099212;28;20493;-57
2021/10/08 00:35:49;;;;;;;;;;;;;;;11.18;100.00;102992.97;5101663;28;20028;-60
2021/10/08 00:38:15;;;;;;;110.33;29.97;;;;;;;11.11;100.00;102999.94;5100348;28;19919;-59
2021/10/08 00:40:44;;;;;;;112.90;30.13;;;;;;;11.07;100.00;102994.00;5102798;28;20042;-60
2021/10/08 00:43:10;;;;;;;73.70;30.33;;;;;;;11.09;100.00;102993.88;5102373;28;20028;-59
2021/10/08 00:45:37;;;;;;;161.63;34.42;;;;;;;11.08;100.00;102994.88;5103544;28;20574;-59
2021/10/08 00:48:05;;;;;;;;;;;;;;;11.04;100.00;102994.31;5105286;28;20028;-59
2021/10/08 00:50:35;;;;;;;114.90;30.03;;;;;;;11.01;100.00;102999.94;5107233;27;20308;-60
2021/10/08 00:53:01;;;;;;;103.70;31.47;;;;;;;10.97;100.00;102993.22;5115527;28;20367;-60
2021/10/08 00:55:27;;;;;;;91.70;29.63;;;;;;;10.96;100.00;103002.22;5115438;28;20343;-60
2021/10/08 00:57:53;;;;;;;118.30;28.80;;;;;;;10.96;100.00;103000.38;5115715;28;20046;-59
2021/10/08 01:00:19;;;;;;;100.07;30.45;;;;;;;10.97;100.00;103001.25;5116546;27;20028;-60
2021/10/08 01:02:45;;;;;;;95.43;32.15;;;;;;;10.97;100.00;102998.56;5116038;28;20384;-59
2021/10/08 01:05:11;;;;;;;110.65;30.83;;;;;;;10.95;100.00;103000.50;5098547;28;20031;-58
2021/10/08 01:07:37;;;;;;;128.25;32.17;;;;;;;10.94;100.00;103001.50;5115572;28;20043;-59
2021/10/08 01:10:07;;;;;;;129.70;33.50;;;;;;;10.89;100.00;102997.44;5116052;28;20040;-60
2021/10/08 01:12:34;;;;;;;107.83;32.40;;;;;;;10.90;100.00;103009.00;5115279;28;20089;-61
2021/10/08 01:15:02;;;;;;;86.47;31.77;;;;;;;10.88;100.00;103011.81;5115493;28;20290;-60
2021/10/08 01:17:29;;;;;;;104.03;31.40;;;;;;;10.86;100.00;103003.06;5114489;28;20283;-60
2021/10/08 01:20:05;;;;;;;115.47;32.93;;;;;;;10.89;100.00;103018.00;5115752;28;20309;-59
2021/10/08 01:22:35;;;;;;;111.63;33.70;;;;;;;10.90;100.00;103003.63;5117071;28;20284;-60
2021/10/08 01:25:01;;;;;;;93.80;30.13;;;;;;;10.88;100.00;103010.97;5114675;28;20772;-60
2021/10/08 01:27:27;;;;;;;77.88;30.55;;;;;;;10.85;100.00;103011.28;5115036;28;20113;-60
2021/10/08 01:29:59;;;;;;;102.53;29.63;;;;;;;10.80;100.00;103013.50;5115032;28;20031;-59
2021/10/08 01:32:38;;;;;;;92.30;29.63;;;;;;;10.80;100.00;103016.19;5102540;28;20564;-60
2021/10/08 01:35:06;;;;;;;66.80;27.50;;;;;;;10.79;100.00;103012.69;5101411;28;20295;-59
2021/10/08 01:37:32;;;;;;;95.90;30.10;;;;;;;10.76;100.00;103012.97;5104282;28;20024;-61
2021/10/08 01:39:58;;;;;;;135.57;30.30;;;;;;;10.73;100.00;103015.94;5098545;28;20826;-59
2021/10/08 01:42:24;;;;;;;121.55;30.27;;;;;;;10.87;100.00;103014.63;5102894;28;20020;-61
2021/10/08 01:44:50;;;;;;;74.28;29.50;;;;;;;10.76;100.00;103013.78;5094414;28;20040;-59
2021/10/08 01:47:18;;;;;;;125.67;29.10;;;;;;;10.74;100.00;103010.41;5096379;28;20023;-60
2021/10/08 01:49:44;;;;;;;113.45;29.33;;;;;;;10.68;100.00;103013.69;5092709;28;20365;-60
2021/10/08 01:52:10;;;;;;;87.57;27.42;;;;;;;10.70;100.00;103014.38;5093512;28;20376;-58
2021/10/08 01:54:44;;;;;;;82.67;28.37;;;;;;;10.71;100.00;103024.09;5092737;28;20126;-60
2021/10/08 01:57:09;;;;;;;104.95;29.42;;;;;;;10.69;100.00;103018.03;5093662;28;20269;-60
2021/10/08 01:59:35;;;;;;;122.35;30.67;;;;;;;10.74;100.00;103015.78;5093617;28;20024;-62
2021/10/08 02:02:04;;;;;;;138.43;28.30;;;;;;;10.68;100.00;103010.13;5093654;28;20043;-60
2021/10/08 02:04:30;;;;;;;87.85;28.60;;;;;;;10.61;100.00;103013.41;5100015;28;20285;-59
2021/10/08 02:06:56;;;;;;;91.03;27.83;;;;;;;10.56;100.00;103004.97;5100714;28;20492;-60
2021/10/08 02:09:23;;;;;;;64.20;26.37;;;;;;;10.53;100.00;103007.06;5092998;28;20442;-60
2021/10/08 02:11:48;;;;;;;88.47;26.80;;;;;;;10.55;100.00;102999.72;5094435;28;20314;-58
2021/10/08 02:14:14;;;;;;;54.92;25.10;;;;;;;10.54;100.00;103008.75;5093817;28;20761;-61
2021/10/08 02:16:44;;;;;;;75.33;26.07;;;;;;;10.55;100.00;103005.09;5093518;28;20119;-60
2021/10/08 02:19:09;;;;;;;94.93;26.38;;;;;;;10.46;100.00;103010.31;5093155;28;20371;-60
2021/10/08 02:21:40;;;;;;;93.97;26.07;;;;;;;10.49;100.00;103005.66;5092571;28;20032;-59
2021/10/08 02:24:07;;;;;;;79.73;27.30;;;;;;;10.49;100.00;103008.34;5076128;28;20800;-60
2021/10/08 02:26:37;;;;;;;102.97;26.80;;;;;;;10.46;100.00;103012.97;5092488;28;20264;-59
2021/10/08 02:29:05;;;;;;;106.37;25.93;;;;;;;10.38;100.00;103007.47;5093303;28;20319;-59
2021/10/08 02:31:32;;;;;;;69.10;24.20;;;;;;;10.42;100.00;103016.06;5092579;28;20414;-59
2021/10/08 02:34:00;;;;;;;64.23;24.80;;;;;;;10.49;100.00;103011.00;5092961;28;20749;-59
2021/10/08 02:36:26;;;;;;;;;;;;;;;10.52;100.00;103003.56;5101545;28;20612;-59
2021/10/08 02:38:51;;;;;;;79.03;25.33;;;;;;;10.49;100.00;103005.66;5104459;28;20360;-60
2021/10/08 02:41:17;;;;;;;64.18;25.58;;;;;;;10.42;100.00;103003.56;5112838;28;20027;-60
2021/10/08 02:43:44;;;;;;;68.10;26.17;;;;;;;10.51;100.00;103006.38;5113130;28;20050;-60
2021/10/08 02:46:11;;;;;;;103.43;27.97;;;;;;;10.52;100.00;103006.22;5092104;28;20027;-60
2021/10/08 02:48:37;;;;;;;94.00;26.55;;;;;;;10.55;100.00;103005.09;5074674;28;20746;-60
2021/10/08 02:51:04;;;;;;;84.78;27.27;;;;;;;10.50;100.00;103007.34;5074349;28;20524;-60
2021/10/08 02:53:30;;;;;;;86.23;26.87;;;;;;;10.54;100.00;103001.59;5074211;28;20070;-60
2021/10/08 02:55:56;;;;;;;67.22;25.98;;;;;;;10.52;100.00;103005.38;5074124;28;20285;-59
2021/10/08 02:58:22;;;;;;;94.80;28.02;;;;;;;10.51;100.00;102988.50;5074486;28;20094;-58
2021/10/08 03:00:49;;;;;;;85.47;26.03;;;;;;;10.41;100.00;102999.19;5074616;28;20131;-58
2021/10/08 03:03:15;;;;;;;93.57;24.10;;;;;;;10.35;100.00;103005.06;5057904;28;20131;-59
2021/10/08 03:05:41;;;;;;;86.43;25.75;;;;;;;10.34;100.00;103006.03;5073126;28;20694;-59
2021/10/08 03:08:07;;;;;;;68.28;26.08;;;;;;;10.35;100.00;102999.72;5073880;28;20047;-60
2021/10/08 03:10:37;;;;;;;140.57;27.27;;;;;;;10.36;100.00;103003.25;5073546;28;20077;-60
2021/10/08 03:13:03;;;;;;;89.22;25.83;;;;;;;10.25;100.00;103006.91;5074372;28;20268;-60
2021/10/08 03:15:30;;;;;;;71.37;26.30;;;;;;;10.30;100.00;103007.31;5086005;28;20040;-60
2021/10/08 03:17:57;;;;;;;75.07;25.57;;;;;;;10.27;100.00;102994.22;5120581;28;20284;-60
2021/10/08 03:20:23;;;;;;;60.10;25.17;;;;;;;10.30;100.00;103007.31;5117778;28;20778;-59
2021/10/08 03:22:49;;;;;;;56.70;23.42;;;;;;;10.36;100.00;103011.25;5113428;28;20048;-59
2021/10/08 03:25:16;;;;;;;65.47;24.17;;;;;;;10.37;100.00;103005.75;5112290;28;20043;-61
2021/10/08 03:27:42;;;;;;;156.33;27.73;;;;;;;10.33;100.00;103013.22;5112955;28;20252;-60
2021/10/08 03:30:14;;;;;;;74.28;26.52;;;;;;;10.31;100.00;103003.66;5114035;28;20436;-60
2021/10/08 03:32:40;;;;;;;87.80;25.87;;;;;;;10.29;100.00;103005.63;5095366;28;20074;-59
2021/10/08 03:35:06;;;;;;;90.05;25.92;;;;;;;10.24;100.00;103010.56;5112093;28;20713;-60
2021/10/08 03:37:43;;;;;;;107.23;26.10;;;;;;;10.14;100.00;103000.69;5111548;28;20059;-61
2021/10/08 03:40:12;;;;;;;95.07;25.77;;;;;;;10.09;100.00;103008.28;5111849;28;20311;-60
2021/10/08 03:42:38;;;;;;;133.43;24.53;;;;;;;10.10;100.00;103012.63;5111764;28;20028;-60
2021/10/08 03:45:11;;;;;;;81.75;26.40;;;;;;;10.00;100.00;103011.78;5113868;28;20268;-62
2021/10/08 03:50:22;;;;;;;111.30;27.50;;;;;;;9.99;100.00;103020.78;5111372;28;20590;-61
2021/10/08 03:52:47;;;;;;;91.25;25.40;;;;;;;9.98;100.00;103024.44;5111371;28;20312;-60
2021/10/08 03:55:13;;;;;;;91.68;26.60;;;;;;;9.96;100.00;103023.75;5112916;28;20043;-58
2021/10/08 03:57:39;;;;;;;91.32;26.23;;;;;;;9.95;100.00;103019.38;5111584;28;20031;-59
2021/10/08 04:00:06;;;;;;;91.27;26.03;;;;;;;9.90;100.00;103022.47;5112431;28;20533;-60
2021/10/08 04:02:41;;;;;;;143.75;27.15;;;;;;;9.88;100.00;103014.56;5112583;28;20024;-60
2021/10/08 04:05:08;;;;;;;86.50;24.63;;;;;;;9.80;100.00;103011.75;5111284;28;20035;-59
2021/10/08 04:07:34;;;;;;;;;;;;;;;9.85;100.00;103020.19;5111595;28;20256;-59
2021/10/08 04:10:00;;;;;;;65.03;22.40;;;;;;;9.83;100.00;103022.16;5111327;28;19965;-61
2021/10/08 04:12:28;;;;;;;78.20;24.13;;;;;;;9.81;100.00;103017.94;5111102;28;20259;-61
2021/10/08 04:14:54;;;;;;;52.42;21.80;;;;;;;9.79;100.00;103019.88;5111883;28;20598;-61
2021/10/08 04:17:20;;;;;;;62.85;21.92;;;;;;;9.77;100.00;103017.38;5111446;28;20043;-59
2021/10/08 04:19:45;;;;;;;48.22;19.63;;;;;;;9.74;100.00;103023.00;5094208;28;20036;-61
2021/10/08 04:22:11;;;;;;;63.60;20.63;;;;;;;9.74;100.00;103023.00;5111120;28;20039;-61
2021/10/08 04:24:37;;;;;;;;;;;;;;;9.65;100.00;103019.31;5111408;28;20392;-59
2021/10/08 04:27:03;;;;;;;64.13;19.37;;;;;;;9.63;100.00;103020.41;5111132;28;19947;-60
2021/10/08 04:29:30;;;;;;;50.70;20.10;;;;;;;9.63;100.00;103023.06;5113004;28;20295;-60
2021/10/08 04:31:55;;;;;;;67.10;21.73;;;;;;;9.61;100.00;103023.22;5111650;28;20044;-59
2021/10/08 04:34:21;;;;;;;77.97;21.67;;;;;;;9.53;100.00;103015.88;5111450;28;20040;-59
2021/10/08 04:36:49;;;;;;;55.93;22.77;;;;;;;9.52;100.00;103024.03;5110734;28;20078;-59
2021/10/08 04:39:14;;;;;;;70.88;21.63;;;;;;;9.52;100.00;103024.88;5094285;28;20756;-59
2021/10/08 04:41:40;;;;;;;100.60;20.98;;;;;;;9.49;100.00;103024.28;5110566;28;20043;-59
2021/10/08 04:44:10;;;;;;;67.33;20.47;;;;;;;9.47;100.00;103030.63;5111673;28;20019;-60
2021/10/08 04:46:35;;;;;;;68.80;21.58;;;;;;;9.42;100.00;103022.16;5111073;28;20298;-59
2021/10/08 04:49:02;;;;;;;69.57;22.67;;;;;;;9.43;100.00;103031.00;5111100;28;20461;-60
2021/10/08 04:51:28;;;;;;;75.27;21.73;;;;;;;9.42;100.00;103032.00;5112374;28;20046;-59
2021/10/08 04:53:53;;;;;;;69.37;21.30;;;;;;;9.40;100.00;103028.59;5112188;28;20341;-60
2021/10/08 04:56:19;;;;;;;55.17;19.67;;;;;;;9.33;100.00;103033.63;5110737;28;20031;-59
2021/10/08 04:58:45;;;;;;;61.95;19.95;;;;;;;9.32;100.00;103042.63;5111089;28;20060;-59
2021/10/08 05:01:11;;;;;;;56.77;21.80;;;;;;;9.31;100.00;103039.13;5111634;28;20036;-61
2021/10/08 05:03:37;;;;;;;71.38;21.67;;;;;;;9.32;100.00;103051.50;5110780;28;20472;-60
2021/10/08 05:06:03;;;;;;;50.80;22.52;;;;;;;9.38;100.00;103052.78;5112168;28;20040;-59
2021/10/08 05:08:37;;;;;;;54.27;22.73;;;;;;;9.32;100.00;103043.47;5110667;28;20040;-59
2021/10/08 05:11:04;;;;;;;54.30;19.90;;;;;;;9.36;100.00;103045.88;5110651;28;20272;-60
2021/10/08 05:13:30;;;;;;;82.20;22.67;;;;;;;9.29;100.00;103046.44;5113141;28;20638;-57
2021/10/08 05:15:57;;;;;;;;;;;;;;;9.28;100.00;103050.06;5114521;28;20040;-60
2021/10/08 05:18:23;;;;;;;41.90;19.97;;;;;;;9.26;100.00;103051.16;5115851;28;19904;-60
2021/10/08 05:20:49;;;;;;;55.93;20.47;;;;;;;9.22;100.00;103045.25;5114074;28;20809;-61
2021/10/08 05:23:16;;;;;;;76.57;21.50;;;;;;;9.16;100.00;103043.09;5112337;28;20030;-60
2021/10/08 05:25:41;;;;;;;60.00;20.20;;;;;;;9.16;100.00;103048.44;5110493;28;20272;-59
2021/10/08 05:28:07;;;;;;;81.60;20.92;;;;;;;9.12;100.00;103044.34;5112139;28;20313;-60
2021/10/08 05:30:33;;;;;;;67.35;20.88;;;;;;;9.07;100.00;103038.56;5115606;28;20039;-59
2021/10/08 05:33:00;;;;;;;61.60;22.70;;;;;;;9.07;100.00;103039.41;5100571;28;20047;-60
2021/10/08 05:35:27;;;;;;;66.65;21.52;;;;;;;9.04;100.00;103053.00;5115720;28;20089;-63
2021/10/08 05:37:53;;;;;;;93.32;25.17;;;;;;;8.99;100.00;103052.56;5115379;28;20460;-59
2021/10/08 05:40:19;;;;;;;109.65;27.48;;;;;;;9.04;100.00;103053.88;5097844;28;20036;-60
2021/10/08 05:42:46;;;;;;;77.53;25.02;;;;;;;8.97;100.00;103051.84;5113985;28;20043;-60
2021/10/08 05:45:13;;;;;;;82.90;23.70;;;;;;;8.91;100.00;103050.53;5115519;28;20039;-62
2021/10/08 05:47:39;;;;;;;81.70;23.00;;;;;;;8.94;100.00;103052.94;5114136;28;20299;-60
2021/10/08 05:50:08;;;;;;;81.07;20.83;;;;;;;8.91;100.00;103055.88;5115247;28;20457;-60
2021/10/08 05:52:33;;;;;;;;;;;;;;;8.91;100.00;103058.53;5097359;28;20276;-59
2021/10/08 05:54:59;;;;;;;91.50;20.80;;;;;;;8.91;100.00;103058.53;5106795;28;20381;-61
2021/10/08 05:57:25;;;;;;;107.40;20.98;;;;;;;8.86;100.00;103052.75;5103423;28;20103;-58
2021/10/08 05:59:51;;;;;;;56.05;23.42;;;;;;;8.88;100.00;103062.34;5106337;27;20114;-60
2021/10/08 06:02:16;;;;;;;59.33;21.20;;;;;;;8.91;100.00;103063.06;5121416;27;20035;-60
2021/10/08 06:04:42;;;;;;;76.97;22.03;;;;;;;8.89;100.00;103061.34;5080548;28;20291;-59
2021/10/08 06:07:10;;;;;;;72.25;21.95;;;;;;;8.94;100.00;103068.94;5114256;28;20313;-59
2021/10/08 06:09:36;;;;;;;52.33;22.58;;;;;;;8.93;100.00;103075.28;5129004;27;20107;-60
2021/10/08 06:12:02;;;;;;;106.78;21.42;;;;;;;8.93;100.00;103080.59;5134850;27;20455;-60
2021/10/08 06:14:31;;;;;;;93.95;22.67;;;;;;;8.91;100.00;103073.72;5101651;27;20036;-60
2021/10/08 06:16:57;;;;;;;70.20;20.60;;;;;;;8.88;100.00;103082.81;5077907;28;20384;-60
2021/10/08 06:19:23;;;;;;;70.78;20.48;;;;;;;8.96;100.00;103088.34;5087964;28;20327;-61
2021/10/08 06:21:49;;;;;;;77.53;23.30;;;;;;;8.96;100.00;103092.84;5087476;28;20232;-60
2021/10/08 06:24:14;;;;;;;119.93;22.20;;;;;;;8.92;100.00;103092.25;5111245;27;20519;-61
2021/10/08 06:26:40;;;;;;;58.45;21.40;;;;;;;8.98;100.00;103097.06;5121904;27;20552;-61
2021/10/08 06:29:06;;;;;;;90.03;22.02;;;;;;;9.01;100.00;103096.84;5107981;27;20388;-59
2021/10/08 06:31:32;;;;;;;98.10;22.02;;;;;;;9.02;100.00;103089.66;5076904;28;20059;-59
2021/10/08 06:33:58;;;;;;;105.32;24.92;;;;;;;9.08;100.00;103096.31;5093419;28;20115;-60
2021/10/08 06:36:24;;;;;;;98.97;23.95;;;;;;;9.03;100.00;103097.56;5060183;28;20598;-61
2021/10/08 06:38:51;;;;;;;73.25;23.08;;;;;;;9.04;100.00;103098.38;5099064;28;20468;-60
2021/10/08 06:41:17;;;;;;;78.10;25.87;;;;;;;9.10;100.00;103099.69;5114107;28;20046;-60
2021/10/08 06:43:45;;;;;;;65.83;23.50;;;;;;;9.08;100.00;103096.31;5113565;28;20358;-59
2021/10/08 06:46:21;;;;;;;132.37;23.67;;;;;;;9.06;100.00;103103.59;5113569;28;20337;-59
2021/10/08 06:48:48;;;;;;;106.43;27.07;;;;;;;9.14;100.00;103101.13;5096571;28;20755;-60
2021/10/08 06:51:14;;;;;;;163.43;27.92;;;;;;;9.18;100.00;103103.41;5098827;28;20273;-59
2021/10/08 06:53:41;;;;;;;127.57;29.93;;;;;;;9.24;100.00;103096.72;5092675;28;20043;-60
2021/10/08 06:56:07;;;;;;;69.82;27.20;;;;;;;9.43;100.00;103100.44;5092802;28;20303;-61
2021/10/08 06:58:52;;;;;;;103.33;26.73;;;;;;;9.51;100.00;103097.13;5089215;28;20057;-60
2021/10/08 07:01:20;;;;;;;99.93;25.30;;;;;;;9.50;100.00;103090.94;5089975;28;20265;-61
2021/10/08 07:03:46;;;;;;;102.93;25.63;;;;;;;9.44;100.00;103094.13;5089437;28;20368;-59
2021/10/08 07:06:15;;;;;;;90.53;25.00;;;;;;;9.56;100.00;103102.91;5091496;28;20268;-60
2021/10/08 07:08:41;;;;;;;84.28;25.52;;;;;;;9.59;100.00;103091.97;5091256;28;20295;-59
2021/10/08 07:11:08;;;;;;;88.43;23.73;;;;;;;9.66;100.00;103098.47;5090206;28;20544;-59
2021/10/08 07:13:34;;;;;;;87.30;24.98;;;;;;;9.48;100.00;103103.59;5073677;28;20488;-59
2021/10/08 07:16:01;;;;;;;120.30;23.63;;;;;;;9.45;100.00;103102.03;5090759;28;20042;-60
2021/10/08 07:18:34;;;;;;;67.57;22.77;;;;;;;9.57;100.00;103112.59;5089190;28;20356;-60
2021/10/08 07:21:00;;;;;;;75.20;23.03;;;;;;;9.59;100.00;103102.66;5090811;28;20362;-59
2021/10/08 07:23:26;;;;;;;133.13;27.17;;;;;;;9.67;100.00;103101.97;5090899;28;20272;-60
2021/10/08 07:25:52;;;;;;;71.18;22.48;;;;;;;9.67;100.00;103107.31;5089998;28;20371;-60
2021/10/08 07:28:18;;;;;;;70.80;23.67;;;;;;;9.75;100.00;103111.03;5091380;28;20461;-59
2021/10/08 07:30:44;;;;;;;61.47;24.42;;;;;;;9.82;100.00;103114.00;5089573;28;20104;-59
2021/10/08 07:33:10;;;;;;;63.92;22.23;;;;;;;9.89;100.00;103115.16;5091055;28;20040;-59
2021/10/08 07:35:35;;;;;;;62.63;23.25;;;;;;;9.97;100.00;103119.00;5090684;28;20416;-59
2021/10/08 07:38:01;;;;;;;60.83;24.00;;;;;;;10.03;100.00;103123.78;5089109;28;20036;-60
2021/10/08 07:40:26;;;;;;;51.65;20.05;;;;;;;10.08;100.00;103126.06;5091322;28;20343;-60
2021/10/08 07:42:52;;;;;;;47.95;21.98;;;;;;;10.14;100.00;103125.50;5090094;28;20509;-60
2021/10/08 07:45:18;;;;;;;61.33;19.92;;;;;;;10.19;100.00;103124.13;5091641;28;20036;-60
2021/10/08 07:47:43;;;;;;;45.00;19.43;;;;;;;10.31;100.00;103122.19;5091007;28;20079;-57
2021/10/08 07:50:10;;;;;;;51.83;19.53;;;;;;;10.28;100.00;103117.13;5090649;28;20609;-60
2021/10/08 07:52:36;;;;;;;81.73;21.07;;;;;;;10.35;100.00;103120.06;5088185;28;20035;-60
2021/10/08 07:55:04;;;;;;;73.75;25.15;;;;;;;10.56;100.00;103119.16;5088642;28;20272;-60
2021/10/08 07:57:29;;;;;;;85.83;28.17;;;;;;;10.56;100.00;103129.84;5100640;27;20380;-60
2021/10/08 07:59:55;;;;;;;104.27;29.53;;;;;;;10.60;100.00;103121.41;5110402;28;20267;-60
2021/10/08 08:02:21;;;;;;;86.88;28.38;;;;;;;10.67;100.00;103132.41;5112291;28;20422;-60
2021/10/08 08:04:47;;;;;;;89.57;25.60;;;;;;;10.72;100.00;103124.81;5110523;28;20092;-59
2021/10/08 08:07:12;;;;;;;60.53;22.87;;;;;;;10.87;100.00;103122.53;5110557;28;20256;-59
2021/10/08 08:09:38;;;;;;;89.80;22.70;;;;;;;10.93;100.00;103121.16;5109188;28;20036;-59
2021/10/08 08:12:03;;;;;;;75.80;24.23;;;;;;;11.02;100.00;103119.44;5109461;28;20031;-60
2021/10/08 08:14:29;;;;;;;74.90;24.70;;;;;;;11.10;100.00;103124.94;5111272;28;20605;-60
2021/10/08 08:16:54;;;;;;;68.77;22.43;;;;;;;11.24;100.00;103128.16;5110997;28;20533;-60
2021/10/08 08:19:20;;;;;;;65.63;22.60;;;;;;;11.38;100.00;103126.88;5099275;28;20036;-59
2021/10/08 08:21:45;;;;;;;53.20;21.83;;;;;;;11.46;100.00;103127.84;5099440;28;20278;-60
2021/10/08 08:24:11;;;;;;;70.35;23.80;;;;;;;11.58;100.00;103125.81;5110212;28;20100;-60
2021/10/08 08:26:37;;;;;;;65.53;25.37;;;;;;;11.68;100.00;103122.25;5091695;28;20075;-60
2021/10/08 08:29:04;;;;;;;55.80;23.52;;;;;;;11.72;100.00;103126.31;5089528;28;20618;-60
2021/10/08 08:31:30;;;;;;;52.73;22.43;;;;;;;11.73;100.00;103125.34;5092122;28;20514;-60
2021/10/08 08:33:55;;;;;;;55.15;24.20;;;;;;;11.88;100.00;103128.41;5108581;28;20381;-60
2021/10/08 08:36:22;;;;;;;72.00;27.67;;;;;;;12.11;100.00;103126.19;5092650;28;20040;-60
2021/10/08 08:38:49;;;;;;;68.70;30.00;;;;;;;12.22;100.00;103125.13;5109146;28;20244;-56
2021/10/08 08:41:14;;;;;;;56.33;26.83;;;;;;;12.44;100.00;103125.72;5092708;28;20834;-60
2021/10/08 08:43:40;;;;;;;47.13;22.63;;;;;;;12.60;100.00;103133.94;5109105;28;20095;-60
2021/10/08 08:46:05;;;;;;;45.00;20.13;;;;;;;12.79;100.00;103133.94;5110319;28;20073;-60
2021/10/08 08:48:31;;;;;;;41.27;19.67;;;;;;;13.03;100.00;103128.78;5094621;28;20032;-59
2021/10/08 08:50:56;;;;;;;35.47;17.55;;;;;;;13.11;100.00;103132.50;5089984;28;20260;-59
2021/10/08 08:53:22;;;;;;;32.88;17.20;;;;;;;13.17;100.00;103131.91;5089277;28;20028;-60
2021/10/08 08:55:51;;;;;;;40.95;17.92;;;;;;;13.29;100.00;103127.13;5089447;28;20044;-61
2021/10/08 08:58:21;;;;;;;32.20;16.70;;;;;;;13.44;100.00;103130.94;5089387;28;20044;-60
2021/10/08 09:00:58;;;;;;;32.47;18.60;;;;;;;13.59;100.00;103125.81;5089625;28;20761;-60
2021/10/08 09:03:24;;;;;;;30.63;18.27;;;;;;;13.83;100.00;103132.31;5088760;28;20283;-60
2021/10/08 09:05:49;;;;;;;34.03;19.10;;;;;;;14.05;100.00;103120.16;5093988;28;20036;-60
2021/10/08 09:08:15;;;;;;;41.23;20.93;;;;;;;14.46;100.00;103123.97;5092499;28;20114;-61
2021/10/08 09:10:44;;;;;;;38.85;19.55;;;;;;;14.68;100.00;103129.72;5115742;27;20529;-61
2021/10/08 09:13:09;;;;;;;53.57;22.63;;;;;;;14.82;100.00;103125.53;5112702;28;20031;-60
2021/10/08 09:15:50;;;;;;;48.42;24.13;;;;;;;14.94;100.00;103121.50;5078948;28;20049;-59
2021/10/08 09:18:22;;;;;;;50.87;22.90;;;;;;;15.00;100.00;103125.38;5112119;28;20035;-59
2021/10/08 09:21:07;;;;;;;57.13;25.67;;;;;;;15.15;100.00;103118.28;5113929;28;20329;-60
2021/10/08 09:23:41;;;;;;;57.23;25.67;;;;;;;15.74;100.00;103119.00;5115186;27;20066;-60
2021/10/08 09:26:17;;;;;;;52.27;25.13;;;;;;;16.14;100.00;103119.84;5126170;27;20130;-60
2021/10/08 09:29:05;;;;;;;50.40;24.83;;;;;;;17.03;100.00;103129.38;5136889;27;20105;-60
2021/10/08 09:31:42;;;;;;;50.63;24.03;;;;;;;17.13;100.00;103126.41;5137943;27;20035;-60
2021/10/08 09:34:17;;;;;;;54.10;25.48;;;;;;;16.41;100.00;103131.19;5129141;27;20119;-59
2021/10/08 09:36:46;;;;;;;56.00;25.07;;;;;;;16.16;100.00;103119.66;5118135;27;20480;-59
2021/10/08 09:39:20;;;;;;;51.97;25.90;;;;;;;16.83;100.00;103120.03;5124120;27;20016;-60
2021/10/08 09:41:56;;;;;;;52.40;25.93;;;;;;;17.61;100.00;103128.78;5122877;27;20027;-61
2021/10/08 09:44:23;;;;;;;53.23;24.73;;;;;;;18.46;100.00;103117.56;5121957;27;20027;-61
2021/10/08 09:46:49;;;;;;;59.20;28.47;;;;;;;19.24;100.00;103132.19;5123033;27;20029;-59
2021/10/08 09:49:22;;;;;;;53.08;25.40;;;;;;;19.49;100.00;103126.28;5125902;27;20160;-60
2021/10/08 09:51:47;;;;;;;57.77;28.33;;;;;;;20.02;100.00;103127.59;5125303;27;20092;-62
2021/10/08 09:54:13;;;;;;;44.15;25.20;;;;;;;20.88;100.00;103122.56;5117622;27;20110;-59
2021/10/08 09:56:42;;;;;;;44.08;23.35;;;;;;;21.70;100.00;103127.66;5103587;28;20123;-61
2021/10/08 09:59:10;;;;;;;38.70;21.90;;;;;;;21.77;100.00;103138.53;5103346;28;20024;-60
2021/10/08 10:01:37;;;;;;;37.70;21.47;;;;;;;22.43;100.00;103133.81;5103571;28;20043;-61
2021/10/08 10:04:04;;;;;;;33.87;19.40;;;;;;;23.10;100.00;103131.63;5102114;28;20035;-58
2021/10/08 10:06:31;;;;;;;31.20;18.03;;;;;;;23.79;96.68;103131.53;5103605;28;20107;-60
2021/10/08 10:08:57;;;;;;;32.08;17.05;;;;;;;24.52;88.73;103130.75;5104341;28;20027;-59
2021/10/08 10:11:25;;;;;;;32.78;17.08;;;;;;;25.14;80.00;103133.06;5104176;28;20035;-59
2021/10/08 10:13:57;;;;;;;27.27;15.52;;;;;;;25.62;72.60;103136.59;5104417;28;20123;-60
2021/10/08 10:16:24;;;;;;;28.90;16.25;;;;;;;26.14;67.53;103140.34;5102072;27;20067;-61
2021/10/08 10:18:54;;;;;;;25.52;15.27;;;;;;;26.30;65.23;103136.00;5103214;28;20023;-60
2021/10/08 10:21:27;;;;;;;26.08;15.15;;;;;;;26.74;62.30;103132.59;5109529;27;20032;-60
2021/10/08 10:23:54;;;;;;;27.33;15.98;;;;;;;26.90;59.24;103139.22;5116637;27;20036;-59
2021/10/08 10:26:24;;;;;;;24.13;15.02;;;;;;;27.41;56.55;103129.16;5102651;28;20106;-59
2021/10/08 10:28:51;;;;;;;24.48;15.23;;;;;;;27.83;53.50;103136.03;5122222;27;20461;-60
2021/10/08 10:31:18;;;;;;;29.52;16.42;;;;;;;28.03;52.93;103141.75;5132292;27;20022;-60
2021/10/08 10:33:44;;;;;;;25.83;14.85;;;;;;;28.41;50.77;103146.53;5131859;27;20084;-60
2021/10/08 10:36:26;;;;;;;29.25;18.30;;;;;;;28.94;48.48;103143.09;5114969;28;20527;-61
2021/10/08 10:39:12;;;;;;;26.10;15.45;;;;;;;28.73;50.32;103141.00;5113765;28;20032;-61
2021/10/08 10:41:39;;;;;;;30.38;17.83;;;;;;;28.89;49.17;103141.97;5113804;28;20388;-60
2021/10/08 10:44:12;;;;;;;27.20;16.02;;;;;;;29.13;47.82;103146.25;5113713;28;20417;-59
2021/10/08 10:51:56;;;;;;;29.02;18.20;;;;;;;29.86;44.91;103141.88;5115070;28;20031;-61
2021/10/08 10:54:34;;;;;;;31.52;18.95;;;;;;;30.07;43.96;103141.94;5114652;28;20096;-61
2021/10/08 10:57:10;;;;;;;32.25;19.70;;;;;;;30.04;44.87;103148.84;5114801;28;20028;-60
2021/10/08 10:59:40;;;;;;;33.78;20.02;;;;;;;30.57;43.01;103128.44;5114685;28;20110;-61
2021/10/08 11:02:09;;;;;;;35.15;21.02;;;;;;;30.97;42.01;103148.84;5113029;28;20034;-61
2021/10/08 11:04:43;;;;;;;33.90;21.42;;;;;;;31.33;40.03;103140.47;5114840;28;20145;-61
2021/10/08 11:07:14;;;;;;;33.25;19.80;;;;;;;31.56;39.21;103135.38;5113207;28;20131;-61
2021/10/08 11:10:03;;;;;;;26.67;17.83;;;;;;;31.30;39.64;103135.50;5114717;28;20153;-61
2021/10/08 11:12:39;;;;;;;32.80;19.15;;;;;;;31.21;39.55;103128.06;5101841;28;20140;-61
2021/10/08 11:15:17;;;;;;;29.02;19.05;;;;;;;31.47;38.52;103126.03;5114023;28;20521;-60